sensor_id;sensor_type;location;lat;lon;timestamp;temperature;humidity
41469;DHT22;27206;47.032;15.484;2023-02-18T00:00:08;5.10;99.90
41469;DHT22;27206;47.032;15.484;2023-02-18T00:02:34;5.20;99.90
41469;DHT22;27206;47.032;15.484;2023-02-18T00:04:59;5.10;99.90
41469;DHT22;27206;47.032;15.484;2023-02-18T00:07:25;4.90;99.90
41469;DHT22;27206;47.032;15.484;2023-02-18T00:09:50;4.90;99.90
41469;DHT22;27206;47.032;15.484;2023-02-18T00:12:16;4.80;99.90
41469;DHT22;27206;47.032;15.484;2023-02-18T00:14:42;4.90;99.90
41469;DHT22;27206;47.032;15.484;2023-02-18T00:17:07;4.90;99.90
41469;DHT22;27206;47.032;15.484;2023-02-18T00:19:33;4.90;99.90
41469;DHT22;27206;47.032;15.484;2023-02-18T00:21:58;4.90;99.90
41469;DHT22;27206;47.032;15.484;2023-02-18T00:24:24;4.80;99.90
41469;DHT22;27206;47.032;15.484;2023-02-18T00:26:51;4.70;99.90
41469;DHT22;27206;47.032;15.484;2023-02-18T00:29:17;4.80;99.90
41469;DHT22;27206;47.032;15.484;2023-02-18T00:31:43;4.80;99.90
41469;DHT22;27206;47.032;15.484;2023-02-18T00:34:09;4.80;99.90
41469;DHT22;27206;47.032;15.484;2023-02-18T00:36:35;4.80;99.90
41469;DHT22;27206;47.032;15.484;2023-02-18T00:39:04;4.90;99.90
41469;DHT22;27206;47.032;15.484;2023-02-18T00:41:32;4.90;99.90
41469;DHT22;27206;47.032;15.484;2023-02-18T00:43:57;4.80;99.90
41469;DHT22;27206;47.032;15.484;2023-02-18T00:46:24;4.90;99.90
41469;DHT22;27206;47.032;15.484;2023-02-18T00:48:50;4.80;99.90
41469;DHT22;27206;47.032;15.484;2023-02-18T00:51:16;4.70;99.90
41469;DHT22;27206;47.032;15.484;2023-02-18T00:53:41;4.60;99.90
41469;DHT22;27206;47.032;15.484;2023-02-18T00:56:07;4.70;99.90
41469;DHT22;27206;47.032;15.484;2023-02-18T00:58:34;4.70;99.90
41469;DHT22;27206;47.032;15.484;2023-02-18T01:01:00;4.50;99.90
41469;DHT22;27206;47.032;15.484;2023-02-18T01:03:26;4.60;99.90
41469;DHT22;27206;47.032;15.484;2023-02-18T01:05:52;4.70;99.90
41469;DHT22;27206;47.032;15.484;2023-02-18T01:08:19;4.80;99.90
41469;DHT22;27206;47.032;15.484;2023-02-18T01:10:46;4.80;99.90
41469;DHT22;27206;47.032;15.484;2023-02-18T01:13:13;4.90;99.90
41469;DHT22;27206;47.032;15.484;2023-02-18T01:15:40;4.80;99.90
41469;DHT22;27206;47.032;15.484;2023-02-18T01:18:07;4.70;99.90
41469;DHT22;27206;47.032;15.484;2023-02-18T01:20:35;4.60;99.90
41469;DHT22;27206;47.032;15.484;2023-02-18T01:23:01;4.70;99.90
41469;DHT22;27206;47.032;15.484;2023-02-18T01:25:27;4.60;99.90
41469;DHT22;27206;47.032;15.484;2023-02-18T01:27:52;4.70;99.90
41469;DHT22;27206;47.032;15.484;2023-02-18T01:30:18;4.70;99.90
41469;DHT22;27206;47.032;15.484;2023-02-18T01:32:44;4.60;99.90
41469;DHT22;27206;47.032;15.484;2023-02-18T01:35:13;4.40;99.90
41469;DHT22;27206;47.032;15.484;2023-02-18T01:37:39;4.40;99.90
41469;DHT22;27206;47.032;15.484;2023-02-18T01:40:06;4.40;99.90
41469;DHT22;27206;47.032;15.484;2023-02-18T01:42:33;4.40;99.90
41469;DHT22;27206;47.032;15.484;2023-02-18T01:45:55;4.40;99.90
41469;DHT22;27206;47.032;15.484;2023-02-18T01:48:13;4.40;99.90
41469;DHT22;27206;47.032;15.484;2023-02-18T01:50:44;4.50;99.90
41469;DHT22;27206;47.032;15.484;2023-02-18T01:53:16;4.50;99.90
41469;DHT22;27206;47.032;15.484;2023-02-18T01:55:47;4.50;99.90
41469;DHT22;27206;47.032;15.484;2023-02-18T01:58:13;4.50;99.90
41469;DHT22;27206;47.032;15.484;2023-02-18T02:00:39;4.30;99.90
41469;DHT22;27206;47.032;15.484;2023-02-18T02:03:05;4.30;99.90
41469;DHT22;27206;47.032;15.484;2023-02-18T02:05:32;4.40;99.90
41469;DHT22;27206;47.032;15.484;2023-02-18T02:07:59;4.40;99.90
41469;DHT22;27206;47.032;15.484;2023-02-18T02:10:31;4.40;99.90
41469;DHT22;27206;47.032;15.484;2023-02-18T02:13:11;4.30;99.90
41469;DHT22;27206;47.032;15.484;2023-02-18T02:18:31;4.40;99.90
41469;DHT22;27206;47.032;15.484;2023-02-18T02:26:57;4.50;99.90
41469;DHT22;27206;47.032;15.484;2023-02-18T02:35:22;4.30;99.90
41469;DHT22;27206;47.032;15.484;2023-02-18T02:40:38;4.30;99.90
41469;DHT22;27206;47.032;15.484;2023-02-18T02:48:26;4.30;99.90
41469;DHT22;27206;47.032;15.484;2023-02-18T02:53:28;4.40;99.90
41469;DHT22;27206;47.032;15.484;2023-02-18T02:55:54;4.30;99.90
41469;DHT22;27206;47.032;15.484;2023-02-18T02:58:21;4.30;99.90
41469;DHT22;27206;47.032;15.484;2023-02-18T03:06:40;4.20;99.90
41469;DHT22;27206;47.032;15.484;2023-02-18T03:09:47;4.30;99.90
41469;DHT22;27206;47.032;15.484;2023-02-18T03:12:33;4.20;99.90
41469;DHT22;27206;47.032;15.484;2023-02-18T03:17:56;4.10;99.90
41469;DHT22;27206;47.032;15.484;2023-02-18T03:20:45;4.10;99.90
41469;DHT22;27206;47.032;15.484;2023-02-18T03:23:16;4.20;99.90
41469;DHT22;27206;47.032;15.484;2023-02-18T03:25:44;4.20;99.90
41469;DHT22;27206;47.032;15.484;2023-02-18T03:28:13;4.30;99.90
41469;DHT22;27206;47.032;15.484;2023-02-18T03:30:45;4.30;99.90
41469;DHT22;27206;47.032;15.484;2023-02-18T03:33:16;4.40;99.90
41469;DHT22;27206;47.032;15.484;2023-02-18T03:35:43;4.30;99.90
41469;DHT22;27206;47.032;15.484;2023-02-18T03:38:21;4.30;99.90
41469;DHT22;27206;47.032;15.484;2023-02-18T03:40:49;4.30;99.90
41469;DHT22;27206;47.032;15.484;2023-02-18T03:43:14;4.30;99.90
41469;DHT22;27206;47.032;15.484;2023-02-18T03:45:43;4.30;99.90
41469;DHT22;27206;47.032;15.484;2023-02-18T03:48:09;4.30;99.90
41469;DHT22;27206;47.032;15.484;2023-02-18T03:50:34;4.30;99.90
41469;DHT22;27206;47.032;15.484;2023-02-18T03:53:00;4.40;99.90
41469;DHT22;27206;47.032;15.484;2023-02-18T03:55:26;4.40;99.90
41469;DHT22;27206;47.032;15.484;2023-02-18T03:57:51;4.40;99.90
41469;DHT22;27206;47.032;15.484;2023-02-18T04:00:18;4.40;99.90
41469;DHT22;27206;47.032;15.484;2023-02-18T04:02:43;4.40;99.90
41469;DHT22;27206;47.032;15.484;2023-02-18T04:05:09;4.40;99.90
41469;DHT22;27206;47.032;15.484;2023-02-18T04:07:35;4.40;99.90
41469;DHT22;27206;47.032;15.484;2023-02-18T04:10:01;4.30;99.90
41469;DHT22;27206;47.032;15.484;2023-02-18T04:12:26;4.30;99.90
41469;DHT22;27206;47.032;15.484;2023-02-18T04:14:52;4.40;99.90
41469;DHT22;27206;47.032;15.484;2023-02-18T04:17:18;4.40;99.90
41469;DHT22;27206;47.032;15.484;2023-02-18T04:19:44;4.40;99.90
41469;DHT22;27206;47.032;15.484;2023-02-18T04:22:10;4.40;99.90
41469;DHT22;27206;47.032;15.484;2023-02-18T04:24:35;4.50;99.90
41469;DHT22;27206;47.032;15.484;2023-02-18T04:27:01;4.50;99.90
41469;DHT22;27206;47.032;15.484;2023-02-18T04:29:27;4.50;99.90
41469;DHT22;27206;47.032;15.484;2023-02-18T04:31:54;4.50;99.90
41469;DHT22;27206;47.032;15.484;2023-02-18T04:34:21;4.50;99.90
41469;DHT22;27206;47.032;15.484;2023-02-18T04:36:47;4.50;99.90
41469;DHT22;27206;47.032;15.484;2023-02-18T04:39:12;4.40;99.90
41469;DHT22;27206;47.032;15.484;2023-02-18T04:41:38;4.50;99.90
41469;DHT22;27206;47.032;15.484;2023-02-18T04:44:04;4.40;99.90
41469;DHT22;27206;47.032;15.484;2023-02-18T04:46:30;4.50;99.90
41469;DHT22;27206;47.032;15.484;2023-02-18T04:48:55;4.40;99.90
41469;DHT22;27206;47.032;15.484;2023-02-18T04:51:21;4.50;99.90
41469;DHT22;27206;47.032;15.484;2023-02-18T04:53:47;4.50;99.90
41469;DHT22;27206;47.032;15.484;2023-02-18T04:56:13;4.50;99.90
41469;DHT22;27206;47.032;15.484;2023-02-18T04:58:38;4.50;99.90
41469;DHT22;27206;47.032;15.484;2023-02-18T05:01:04;4.40;99.90
41469;DHT22;27206;47.032;15.484;2023-02-18T05:03:30;4.40;99.90
41469;DHT22;27206;47.032;15.484;2023-02-18T05:05:56;4.40;99.90
41469;DHT22;27206;47.032;15.484;2023-02-18T05:08:22;4.40;99.90
41469;DHT22;27206;47.032;15.484;2023-02-18T05:10:48;4.20;99.90
41469;DHT22;27206;47.032;15.484;2023-02-18T05:13:14;4.30;99.90
41469;DHT22;27206;47.032;15.484;2023-02-18T05:15:40;4.40;99.90
41469;DHT22;27206;47.032;15.484;2023-02-18T05:18:06;4.40;99.90
41469;DHT22;27206;47.032;15.484;2023-02-18T05:20:34;4.40;99.90
41469;DHT22;27206;47.032;15.484;2023-02-18T05:22:59;4.40;99.90
41469;DHT22;27206;47.032;15.484;2023-02-18T05:25:25;4.40;99.90
41469;DHT22;27206;47.032;15.484;2023-02-18T05:27:51;4.30;99.90
41469;DHT22;27206;47.032;15.484;2023-02-18T05:30:16;4.10;99.90
41469;DHT22;27206;47.032;15.484;2023-02-18T05:32:42;4.20;99.90
41469;DHT22;27206;47.032;15.484;2023-02-18T05:35:08;4.10;99.90
41469;DHT22;27206;47.032;15.484;2023-02-18T05:37:34;4.30;99.90
41469;DHT22;27206;47.032;15.484;2023-02-18T05:40:02;4.40;99.90
41469;DHT22;27206;47.032;15.484;2023-02-18T05:42:28;4.30;99.90
41469;DHT22;27206;47.032;15.484;2023-02-18T05:44:54;4.30;99.90
41469;DHT22;27206;47.032;15.484;2023-02-18T05:47:19;4.30;99.90
41469;DHT22;27206;47.032;15.484;2023-02-18T05:49:45;4.20;99.90
41469;DHT22;27206;47.032;15.484;2023-02-18T05:52:11;4.30;99.90
41469;DHT22;27206;47.032;15.484;2023-02-18T05:54:37;4.40;99.90
41469;DHT22;27206;47.032;15.484;2023-02-18T05:57:03;4.40;99.90
41469;DHT22;27206;47.032;15.484;2023-02-18T05:59:29;4.40;99.90
41469;DHT22;27206;47.032;15.484;2023-02-18T06:01:55;4.40;99.90
41469;DHT22;27206;47.032;15.484;2023-02-18T06:04:21;4.30;99.90
41469;DHT22;27206;47.032;15.484;2023-02-18T06:06:47;4.30;99.90
41469;DHT22;27206;47.032;15.484;2023-02-18T06:09:12;4.40;99.90
41469;DHT22;27206;47.032;15.484;2023-02-18T06:11:38;4.40;99.90
41469;DHT22;27206;47.032;15.484;2023-02-18T06:14:04;4.20;99.90
41469;DHT22;27206;47.032;15.484;2023-02-18T06:16:30;4.30;99.90
41469;DHT22;27206;47.032;15.484;2023-02-18T06:18:56;4.30;99.90
41469;DHT22;27206;47.032;15.484;2023-02-18T06:21:22;4.30;99.90
41469;DHT22;27206;47.032;15.484;2023-02-18T06:23:48;4.30;99.90
41469;DHT22;27206;47.032;15.484;2023-02-18T06:26:13;4.40;99.90
41469;DHT22;27206;47.032;15.484;2023-02-18T06:28:39;4.40;99.90
41469;DHT22;27206;47.032;15.484;2023-02-18T06:31:05;4.40;99.90
41469;DHT22;27206;47.032;15.484;2023-02-18T06:33:30;4.40;99.90
41469;DHT22;27206;47.032;15.484;2023-02-18T06:35:59;4.30;99.90
41469;DHT22;27206;47.032;15.484;2023-02-18T06:38:26;4.30;99.90
41469;DHT22;27206;47.032;15.484;2023-02-18T06:40:52;4.40;99.90
41469;DHT22;27206;47.032;15.484;2023-02-18T06:43:18;4.30;99.90
41469;DHT22;27206;47.032;15.484;2023-02-18T06:45:44;4.40;99.90
41469;DHT22;27206;47.032;15.484;2023-02-18T06:48:10;4.40;99.90
41469;DHT22;27206;47.032;15.484;2023-02-18T06:50:36;4.40;99.90
41469;DHT22;27206;47.032;15.484;2023-02-18T06:53:01;4.20;99.90
41469;DHT22;27206;47.032;15.484;2023-02-18T06:55:27;4.40;99.90
41469;DHT22;27206;47.032;15.484;2023-02-18T06:57:53;4.40;99.90
41469;DHT22;27206;47.032;15.484;2023-02-18T07:00:19;4.40;99.90
41469;DHT22;27206;47.032;15.484;2023-02-18T07:02:44;4.50;99.90
41469;DHT22;27206;47.032;15.484;2023-02-18T07:05:10;4.50;99.90
41469;DHT22;27206;47.032;15.484;2023-02-18T07:07:36;4.60;99.90
41469;DHT22;27206;47.032;15.484;2023-02-18T07:10:02;4.50;99.90
41469;DHT22;27206;47.032;15.484;2023-02-18T07:12:27;4.40;99.90
41469;DHT22;27206;47.032;15.484;2023-02-18T07:14:53;4.50;99.90
41469;DHT22;27206;47.032;15.484;2023-02-18T07:17:19;4.60;99.90
41469;DHT22;27206;47.032;15.484;2023-02-18T07:19:44;4.70;99.90
41469;DHT22;27206;47.032;15.484;2023-02-18T07:22:10;4.60;99.90
41469;DHT22;27206;47.032;15.484;2023-02-18T07:24:36;4.60;99.90
41469;DHT22;27206;47.032;15.484;2023-02-18T07:27:01;4.70;99.90
41469;DHT22;27206;47.032;15.484;2023-02-18T07:29:27;4.70;99.90
41469;DHT22;27206;47.032;15.484;2023-02-18T07:31:53;4.90;99.90
41469;DHT22;27206;47.032;15.484;2023-02-18T07:34:19;5.00;99.90
41469;DHT22;27206;47.032;15.484;2023-02-18T07:36:44;5.10;99.90
41469;DHT22;27206;47.032;15.484;2023-02-18T07:39:10;5.10;99.90
41469;DHT22;27206;47.032;15.484;2023-02-18T07:41:36;5.20;99.90
41469;DHT22;27206;47.032;15.484;2023-02-18T07:44:01;5.30;99.90
41469;DHT22;27206;47.032;15.484;2023-02-18T07:46:27;5.40;99.90
41469;DHT22;27206;47.032;15.484;2023-02-18T07:48:53;5.50;99.90
41469;DHT22;27206;47.032;15.484;2023-02-18T07:51:19;5.50;99.90
41469;DHT22;27206;47.032;15.484;2023-02-18T07:53:44;5.50;99.90
41469;DHT22;27206;47.032;15.484;2023-02-18T07:56:10;5.60;99.90
41469;DHT22;27206;47.032;15.484;2023-02-18T07:58:37;5.70;99.90
41469;DHT22;27206;47.032;15.484;2023-02-18T08:01:11;5.70;99.90
41469;DHT22;27206;47.032;15.484;2023-02-18T08:03:39;5.90;99.90
41469;DHT22;27206;47.032;15.484;2023-02-18T08:06:06;6.00;99.90
41469;DHT22;27206;47.032;15.484;2023-02-18T08:08:32;5.90;99.90
41469;DHT22;27206;47.032;15.484;2023-02-18T08:11:00;6.00;99.90
41469;DHT22;27206;47.032;15.484;2023-02-18T08:13:32;6.10;99.90
41469;DHT22;27206;47.032;15.484;2023-02-18T08:15:58;6.20;99.90
41469;DHT22;27206;47.032;15.484;2023-02-18T08:18:24;6.30;99.90
41469;DHT22;27206;47.032;15.484;2023-02-18T08:20:50;6.40;99.90
41469;DHT22;27206;47.032;15.484;2023-02-18T08:23:18;6.50;99.90
41469;DHT22;27206;47.032;15.484;2023-02-18T08:25:47;6.70;99.90
41469;DHT22;27206;47.032;15.484;2023-02-18T08:28:13;6.70;99.90
41469;DHT22;27206;47.032;15.484;2023-02-18T08:30:46;6.90;99.90
41469;DHT22;27206;47.032;15.484;2023-02-18T08:33:13;7.00;99.90
41469;DHT22;27206;47.032;15.484;2023-02-18T08:35:38;7.10;99.90
41469;DHT22;27206;47.032;15.484;2023-02-18T08:38:04;7.20;99.90
41469;DHT22;27206;47.032;15.484;2023-02-18T08:40:30;7.20;99.90
41469;DHT22;27206;47.032;15.484;2023-02-18T08:42:56;7.30;99.90
41469;DHT22;27206;47.032;15.484;2023-02-18T08:45:21;7.40;99.90
41469;DHT22;27206;47.032;15.484;2023-02-18T08:47:47;7.40;99.90
41469;DHT22;27206;47.032;15.484;2023-02-18T08:50:14;7.60;99.90
41469;DHT22;27206;47.032;15.484;2023-02-18T08:52:40;7.90;99.90
41469;DHT22;27206;47.032;15.484;2023-02-18T08:55:06;7.80;99.90
41469;DHT22;27206;47.032;15.484;2023-02-18T08:57:32;7.80;99.90
41469;DHT22;27206;47.032;15.484;2023-02-18T08:59:57;7.80;99.90
41469;DHT22;27206;47.032;15.484;2023-02-18T09:02:23;7.90;99.90
41469;DHT22;27206;47.032;15.484;2023-02-18T09:04:49;7.90;99.90
41469;DHT22;27206;47.032;15.484;2023-02-18T09:07:15;8.20;99.90
41469;DHT22;27206;47.032;15.484;2023-02-18T09:09:40;8.20;99.90
41469;DHT22;27206;47.032;15.484;2023-02-18T09:12:07;8.30;99.90
41469;DHT22;27206;47.032;15.484;2023-02-18T09:14:33;8.20;99.90
41469;DHT22;27206;47.032;15.484;2023-02-18T09:16:58;8.30;99.90
41469;DHT22;27206;47.032;15.484;2023-02-18T09:19:24;8.50;99.90
41469;DHT22;27206;47.032;15.484;2023-02-18T09:21:50;8.60;99.90
41469;DHT22;27206;47.032;15.484;2023-02-18T09:24:19;8.80;99.90
41469;DHT22;27206;47.032;15.484;2023-02-18T09:26:45;8.90;99.90
41469;DHT22;27206;47.032;15.484;2023-02-18T09:29:11;9.20;99.90
41469;DHT22;27206;47.032;15.484;2023-02-18T09:31:36;9.50;99.90
41469;DHT22;27206;47.032;15.484;2023-02-18T09:34:04;9.70;99.90
41469;DHT22;27206;47.032;15.484;2023-02-18T09:36:30;10.00;99.90
41469;DHT22;27206;47.032;15.484;2023-02-18T09:38:56;10.30;99.90
41469;DHT22;27206;47.032;15.484;2023-02-18T09:41:33;10.60;99.90
41469;DHT22;27206;47.032;15.484;2023-02-18T09:44:05;10.80;99.90
41469;DHT22;27206;47.032;15.484;2023-02-18T09:46:40;11.20;99.90
41469;DHT22;27206;47.032;15.484;2023-02-18T09:49:24;11.40;99.90
41469;DHT22;27206;47.032;15.484;2023-02-18T09:51:51;11.90;99.90
41469;DHT22;27206;47.032;15.484;2023-02-18T09:54:19;12.20;99.90
41469;DHT22;27206;47.032;15.484;2023-02-18T09:56:45;12.40;99.90
41469;DHT22;27206;47.032;15.484;2023-02-18T09:59:20;12.70;99.90
41469;DHT22;27206;47.032;15.484;2023-02-18T10:01:49;12.90;99.90
41469;DHT22;27206;47.032;15.484;2023-02-18T10:04:30;13.30;99.90
41469;DHT22;27206;47.032;15.484;2023-02-18T10:07:31;13.60;99.90
41469;DHT22;27206;47.032;15.484;2023-02-18T10:10:04;13.90;99.90
41469;DHT22;27206;47.032;15.484;2023-02-18T10:12:40;14.00;99.90
41469;DHT22;27206;47.032;15.484;2023-02-18T10:15:09;14.20;99.90
41469;DHT22;27206;47.032;15.484;2023-02-18T10:17:41;14.30;99.90
41469;DHT22;27206;47.032;15.484;2023-02-18T10:20:09;14.20;99.90
41469;DHT22;27206;47.032;15.484;2023-02-18T10:22:37;14.10;99.90
41469;DHT22;27206;47.032;15.484;2023-02-18T10:25:16;14.10;99.90
41469;DHT22;27206;47.032;15.484;2023-02-18T10:27:45;14.40;99.90
41469;DHT22;27206;47.032;15.484;2023-02-18T10:30:37;14.60;99.90
41469;DHT22;27206;47.032;15.484;2023-02-18T10:36:36;15.10;99.90
41469;DHT22;27206;47.032;15.484;2023-02-18T10:39:33;15.50;99.90
41469;DHT22;27206;47.032;15.484;2023-02-18T10:47:39;16.40;99.90
41469;DHT22;27206;47.032;15.484;2023-02-18T10:50:31;16.40;99.90
41469;DHT22;27206;47.032;15.484;2023-02-18T10:53:36;16.80;99.90
41469;DHT22;27206;47.032;15.484;2023-02-18T10:59:26;17.60;99.90
41469;DHT22;27206;47.032;15.484;2023-02-18T11:01:55;17.70;99.90
41469;DHT22;27206;47.032;15.484;2023-02-18T11:04:33;18.00;99.90
41469;DHT22;27206;47.032;15.484;2023-02-18T11:07:04;18.00;99.90
41469;DHT22;27206;47.032;15.484;2023-02-18T11:10:14;17.70;99.90
41469;DHT22;27206;47.032;15.484;2023-02-18T11:12:47;18.10;99.90
41469;DHT22;27206;47.032;15.484;2023-02-18T11:17:41;17.70;99.90
41469;DHT22;27206;47.032;15.484;2023-02-18T11:20:26;17.80;99.90
41469;DHT22;27206;47.032;15.484;2023-02-18T11:25:35;18.40;99.90
41469;DHT22;27206;47.032;15.484;2023-02-18T11:30:49;18.50;99.90
41469;DHT22;27206;47.032;15.484;2023-02-18T11:33:22;18.80;99.90
41469;DHT22;27206;47.032;15.484;2023-02-18T11:35:54;18.80;99.90
41469;DHT22;27206;47.032;15.484;2023-02-18T11:38:59;18.80;99.90
41469;DHT22;27206;47.032;15.484;2023-02-18T11:41:36;18.40;99.90
41469;DHT22;27206;47.032;15.484;2023-02-18T11:44:16;18.90;99.90
41469;DHT22;27206;47.032;15.484;2023-02-18T11:47:02;18.90;99.90
41469;DHT22;27206;47.032;15.484;2023-02-18T11:49:28;18.80;99.90
41469;DHT22;27206;47.032;15.484;2023-02-18T11:55:10;18.50;99.90
41469;DHT22;27206;47.032;15.484;2023-02-18T11:57:44;18.60;99.90
41469;DHT22;27206;47.032;15.484;2023-02-18T12:00:15;18.40;99.90
41469;DHT22;27206;47.032;15.484;2023-02-18T12:02:44;18.50;99.90
41469;DHT22;27206;47.032;15.484;2023-02-18T12:05:26;18.40;99.90
41469;DHT22;27206;47.032;15.484;2023-02-18T12:08:00;18.50;99.90
41469;DHT22;27206;47.032;15.484;2023-02-18T12:10:39;19.30;99.90
41469;DHT22;27206;47.032;15.484;2023-02-18T12:13:34;19.50;99.90
41469;DHT22;27206;47.032;15.484;2023-02-18T12:32:49;19.40;99.90
41469;DHT22;27206;47.032;15.484;2023-02-18T12:38:26;19.80;99.90
41469;DHT22;27206;47.032;15.484;2023-02-18T12:43:43;19.60;99.90
41469;DHT22;27206;47.032;15.484;2023-02-18T12:46:21;20.00;99.90
41469;DHT22;27206;47.032;15.484;2023-02-18T12:49:14;20.00;99.90
41469;DHT22;27206;47.032;15.484;2023-02-18T12:57:50;19.60;99.90
41469;DHT22;27206;47.032;15.484;2023-02-18T13:06:47;19.30;99.90
41469;DHT22;27206;47.032;15.484;2023-02-18T13:09:39;19.40;99.90
41469;DHT22;27206;47.032;15.484;2023-02-18T13:12:36;18.90;99.90
41469;DHT22;27206;47.032;15.484;2023-02-18T13:18:11;18.30;99.90
41469;DHT22;27206;47.032;15.484;2023-02-18T13:20:54;18.40;99.90
41469;DHT22;27206;47.032;15.484;2023-02-18T13:23:30;18.50;99.90
41469;DHT22;27206;47.032;15.484;2023-02-18T13:25:59;18.40;99.90
41469;DHT22;27206;47.032;15.484;2023-02-18T13:28:31;18.90;99.90
41469;DHT22;27206;47.032;15.484;2023-02-18T13:33:43;18.60;99.90
41469;DHT22;27206;47.032;15.484;2023-02-18T13:39:13;17.50;99.90
41469;DHT22;27206;47.032;15.484;2023-02-18T13:41:46;17.20;99.90
41469;DHT22;27206;47.032;15.484;2023-02-18T13:49:25;16.60;99.90
41469;DHT22;27206;47.032;15.484;2023-02-18T13:51:55;16.10;99.90
41469;DHT22;27206;47.032;15.484;2023-02-18T13:54:28;16.10;99.90
41469;DHT22;27206;47.032;15.484;2023-02-18T13:57:00;15.90;99.90
41469;DHT22;27206;47.032;15.484;2023-02-18T14:01:53;15.70;99.90
41469;DHT22;27206;47.032;15.484;2023-02-18T14:09:51;17.00;99.90
41469;DHT22;27206;47.032;15.484;2023-02-18T14:18:31;16.90;99.90
41469;DHT22;27206;47.032;15.484;2023-02-18T14:29:11;17.00;99.90
41469;DHT22;27206;47.032;15.484;2023-02-18T14:31:44;16.60;99.90
41469;DHT22;27206;47.032;15.484;2023-02-18T14:34:33;16.20;99.90
41469;DHT22;27206;47.032;15.484;2023-02-18T14:42:52;16.70;99.90
41469;DHT22;27206;47.032;15.484;2023-02-18T14:45:26;16.30;99.90
41469;DHT22;27206;47.032;15.484;2023-02-18T14:50:42;16.40;99.90
41469;DHT22;27206;47.032;15.484;2023-02-18T14:53:19;16.40;99.90
41469;DHT22;27206;47.032;15.484;2023-02-18T14:55:48;16.60;99.90
41469;DHT22;27206;47.032;15.484;2023-02-18T14:58:54;17.00;99.90
41469;DHT22;27206;47.032;15.484;2023-02-18T15:03:48;17.00;99.90
41469;DHT22;27206;47.032;15.484;2023-02-18T15:06:32;16.60;99.90
41469;DHT22;27206;47.032;15.484;2023-02-18T15:09:12;16.90;99.90
41469;DHT22;27206;47.032;15.484;2023-02-18T15:11:42;17.20;99.90
41469;DHT22;27206;47.032;15.484;2023-02-18T15:14:18;16.80;99.90
41469;DHT22;27206;47.032;15.484;2023-02-18T15:16:51;16.30;99.90
41469;DHT22;27206;47.032;15.484;2023-02-18T15:19:25;15.90;99.90
41469;DHT22;27206;47.032;15.484;2023-02-18T15:21:53;15.40;99.90
41469;DHT22;27206;47.032;15.484;2023-02-18T15:24:37;15.00;99.90
41469;DHT22;27206;47.032;15.484;2023-02-18T15:27:17;15.50;99.90
41469;DHT22;27206;47.032;15.484;2023-02-18T15:29:43;15.90;99.90
41469;DHT22;27206;47.032;15.484;2023-02-18T15:32:28;15.60;99.90
41469;DHT22;27206;47.032;15.484;2023-02-18T15:34:58;15.40;99.90
41469;DHT22;27206;47.032;15.484;2023-02-18T15:37:27;15.40;99.90
41469;DHT22;27206;47.032;15.484;2023-02-18T15:39:53;15.30;99.90
41469;DHT22;27206;47.032;15.484;2023-02-18T15:42:32;15.10;99.90
41469;DHT22;27206;47.032;15.484;2023-02-18T15:47:26;14.50;99.90
41469;DHT22;27206;47.032;15.484;2023-02-18T15:49:55;14.50;99.90
41469;DHT22;27206;47.032;15.484;2023-02-18T15:52:30;14.30;99.90
41469;DHT22;27206;47.032;15.484;2023-02-18T15:55:12;13.80;99.90
41469;DHT22;27206;47.032;15.484;2023-02-18T15:57:40;13.50;99.90
41469;DHT22;27206;47.032;15.484;2023-02-18T16:00:20;13.30;99.90
41469;DHT22;27206;47.032;15.484;2023-02-18T16:03:23;13.10;99.90
41469;DHT22;27206;47.032;15.484;2023-02-18T16:05:48;12.90;99.90
41469;DHT22;27206;47.032;15.484;2023-02-18T16:08:23;12.40;99.90
41469;DHT22;27206;47.032;15.484;2023-02-18T16:11:08;12.30;99.90
41469;DHT22;27206;47.032;15.484;2023-02-18T16:13:36;12.10;99.90
41469;DHT22;27206;47.032;15.484;2023-02-18T16:16:02;12.00;99.90
41469;DHT22;27206;47.032;15.484;2023-02-18T16:18:37;11.70;99.90
41469;DHT22;27206;47.032;15.484;2023-02-18T16:23:45;11.50;99.90
41469;DHT22;27206;47.032;15.484;2023-02-18T16:26:30;11.30;99.90
41469;DHT22;27206;47.032;15.484;2023-02-18T16:29:04;11.00;99.90
41469;DHT22;27206;47.032;15.484;2023-02-18T16:31:34;10.80;99.90
41469;DHT22;27206;47.032;15.484;2023-02-18T16:34:00;10.60;99.90
41469;DHT22;27206;47.032;15.484;2023-02-18T16:36:26;10.30;99.90
41469;DHT22;27206;47.032;15.484;2023-02-18T16:38:51;10.30;99.90
41469;DHT22;27206;47.032;15.484;2023-02-18T16:41:17;10.30;99.90
41469;DHT22;27206;47.032;15.484;2023-02-18T16:43:43;10.00;99.90
41469;DHT22;27206;47.032;15.484;2023-02-18T16:46:14;9.80;99.90
41469;DHT22;27206;47.032;15.484;2023-02-18T16:48:44;9.60;99.90
41469;DHT22;27206;47.032;15.484;2023-02-18T16:51:16;9.60;99.90
41469;DHT22;27206;47.032;15.484;2023-02-18T16:53:43;9.60;99.90
41469;DHT22;27206;47.032;15.484;2023-02-18T16:56:16;9.30;99.90
41469;DHT22;27206;47.032;15.484;2023-02-18T16:58:42;9.30;99.90
41469;DHT22;27206;47.032;15.484;2023-02-18T17:01:28;9.10;99.90
41469;DHT22;27206;47.032;15.484;2023-02-18T17:03:54;9.10;99.90
41469;DHT22;27206;47.032;15.484;2023-02-18T17:06:21;9.00;99.90
41469;DHT22;27206;47.032;15.484;2023-02-18T17:08:47;8.90;99.90
41469;DHT22;27206;47.032;15.484;2023-02-18T17:11:22;8.70;99.90
41469;DHT22;27206;47.032;15.484;2023-02-18T17:13:51;8.60;99.90
41469;DHT22;27206;47.032;15.484;2023-02-18T17:16:17;8.60;99.90
41469;DHT22;27206;47.032;15.484;2023-02-18T17:18:43;8.40;99.90
41469;DHT22;27206;47.032;15.484;2023-02-18T17:21:17;8.40;99.90
41469;DHT22;27206;47.032;15.484;2023-02-18T17:23:43;7.90;99.90
41469;DHT22;27206;47.032;15.484;2023-02-18T17:26:24;7.80;99.90
41469;DHT22;27206;47.032;15.484;2023-02-18T17:28:50;7.90;99.90
41469;DHT22;27206;47.032;15.484;2023-02-18T17:31:19;7.90;99.90
41469;DHT22;27206;47.032;15.484;2023-02-18T17:33:47;7.70;99.90
41469;DHT22;27206;47.032;15.484;2023-02-18T17:36:13;7.60;99.90
41469;DHT22;27206;47.032;15.484;2023-02-18T17:38:39;7.60;99.90
41469;DHT22;27206;47.032;15.484;2023-02-18T17:41:06;7.50;99.90
41469;DHT22;27206;47.032;15.484;2023-02-18T17:43:32;7.50;99.90
41469;DHT22;27206;47.032;15.484;2023-02-18T17:45:58;7.30;99.90
41469;DHT22;27206;47.032;15.484;2023-02-18T17:48:25;7.30;99.90
41469;DHT22;27206;47.032;15.484;2023-02-18T17:50:51;7.30;99.90
41469;DHT22;27206;47.032;15.484;2023-02-18T17:53:17;7.40;99.90
41469;DHT22;27206;47.032;15.484;2023-02-18T17:55:44;7.30;99.90
41469;DHT22;27206;47.032;15.484;2023-02-18T17:58:11;7.20;99.90
41469;DHT22;27206;47.032;15.484;2023-02-18T18:00:41;7.00;99.90
41469;DHT22;27206;47.032;15.484;2023-02-18T18:03:09;7.10;99.90
41469;DHT22;27206;47.032;15.484;2023-02-18T18:05:37;7.10;99.90